sensor_id;sensor_type;location;lat;lon;timestamp;pressure;altitude;pressure_sealevel;temperature;humidity
70256;BME280;57669;52.624;-1.688;2023-01-28T00:00:10;102656.34;;;5.37;43.93
70256;BME280;57669;52.624;-1.688;2023-01-28T00:02:35;102655.66;;;5.50;44.16
70256;BME280;57669;52.624;-1.688;2023-01-28T00:05:01;102650.48;;;5.85;43.01
70256;BME280;57669;52.624;-1.688;2023-01-28T00:07:26;102652.77;;;6.45;42.74
70256;BME280;57669;52.624;-1.688;2023-01-28T00:09:52;102646.39;;;6.73;42.62
70256;BME280;57669;52.624;-1.688;2023-01-28T00:12:17;102643.14;;;6.58;42.84
70256;BME280;57669;52.624;-1.688;2023-01-28T00:14:42;102643.24;;;5.70;43.83
70256;BME280;57669;52.624;-1.688;2023-01-28T00:17:07;102646.64;;;5.74;43.51
70256;BME280;57669;52.624;-1.688;2023-01-28T00:19:32;102642.09;;;6.50;42.75
70256;BME280;57669;52.624;-1.688;2023-01-28T00:21:57;102638.45;;;6.31;42.79
70256;BME280;57669;52.624;-1.688;2023-01-28T00:24:23;102637.23;;;5.73;43.88
70256;BME280;57669;52.624;-1.688;2023-01-28T00:26:48;102636.57;;;5.62;43.90
70256;BME280;57669;52.624;-1.688;2023-01-28T00:29:14;102638.26;;;6.47;43.06
70256;BME280;57669;52.624;-1.688;2023-01-28T00:31:39;102630.75;;;6.67;42.86
70256;BME280;57669;52.624;-1.688;2023-01-28T00:34:05;102627.15;;;6.05;43.93
70256;BME280;57669;52.624;-1.688;2023-01-28T00:38:57;102625.13;;;5.97;43.56
70256;BME280;57669;52.624;-1.688;2023-01-28T00:41:23;102628.12;;;6.05;43.58
70256;BME280;57669;52.624;-1.688;2023-01-28T00:43:46;102628.89;;;6.29;43.49
70256;BME280;57669;52.624;-1.688;2023-01-28T00:46:11;102627.59;;;5.75;43.97
70256;BME280;57669;52.624;-1.688;2023-01-28T00:48:38;102624.21;;;6.06;43.60
70256;BME280;57669;52.624;-1.688;2023-01-28T00:51:03;102623.09;;;5.52;44.30
70256;BME280;57669;52.624;-1.688;2023-01-28T00:53:29;102620.06;;;5.43;45.37
70256;BME280;57669;52.624;-1.688;2023-01-28T00:55:54;102619.38;;;5.47;44.99
70256;BME280;57669;52.624;-1.688;2023-01-28T00:58:18;102615.30;;;5.11;46.36
70256;BME280;57669;52.624;-1.688;2023-01-28T01:00:44;102618.60;;;5.43;45.48
70256;BME280;57669;52.624;-1.688;2023-01-28T01:03:09;102616.19;;;5.35;45.84
70256;BME280;57669;52.624;-1.688;2023-01-28T01:05:35;102616.64;;;5.83;45.49
70256;BME280;57669;52.624;-1.688;2023-01-28T01:08:01;102612.78;;;6.04;45.08
70256;BME280;57669;52.624;-1.688;2023-01-28T01:10:26;102618.10;;;5.74;45.66
70256;BME280;57669;52.624;-1.688;2023-01-28T01:12:52;102617.35;;;5.42;45.87
70256;BME280;57669;52.624;-1.688;2023-01-28T01:15:18;102615.07;;;5.56;45.84
70256;BME280;57669;52.624;-1.688;2023-01-28T01:17:45;102613.39;;;4.67;47.50
70256;BME280;57669;52.624;-1.688;2023-01-28T01:20:12;102617.47;;;5.11;46.91
70256;BME280;57669;52.624;-1.688;2023-01-28T01:22:35;102618.79;;;5.47;46.73
70256;BME280;57669;52.624;-1.688;2023-01-28T01:24:59;102618.67;;;5.35;46.68
70256;BME280;57669;52.624;-1.688;2023-01-28T01:27:34;102617.80;;;5.52;46.59
70256;BME280;57669;52.624;-1.688;2023-01-28T01:29:50;102618.61;;;5.95;45.90
70256;BME280;57669;52.624;-1.688;2023-01-28T01:32:15;102614.10;;;6.10;45.20
70256;BME280;57669;52.624;-1.688;2023-01-28T01:34:41;102619.42;;;5.81;45.70
70256;BME280;57669;52.624;-1.688;2023-01-28T01:37:06;102617.94;;;5.37;46.43
70256;BME280;57669;52.624;-1.688;2023-01-28T01:39:31;102612.05;;;5.28;46.16
70256;BME280;57669;52.624;-1.688;2023-01-28T01:41:57;102616.30;;;5.78;46.18
70256;BME280;57669;52.624;-1.688;2023-01-28T01:46:50;102617.81;;;5.69;46.09
70256;BME280;57669;52.624;-1.688;2023-01-28T01:49:16;102612.94;;;5.24;46.95
70256;BME280;57669;52.624;-1.688;2023-01-28T01:51:39;102614.97;;;4.55;47.79
70256;BME280;57669;52.624;-1.688;2023-01-28T01:54:05;102617.19;;;4.41;48.77
70256;BME280;57669;52.624;-1.688;2023-01-28T01:56:33;102617.20;;;4.97;48.03
70256;BME280;57669;52.624;-1.688;2023-01-28T01:58:56;102613.77;;;4.54;48.57
70256;BME280;57669;52.624;-1.688;2023-01-28T02:01:26;102611.73;;;4.44;48.83
70256;BME280;57669;52.624;-1.688;2023-01-28T02:03:52;102606.68;;;4.82;48.81
70256;BME280;57669;52.624;-1.688;2023-01-28T02:06:11;102604.96;;;3.84;50.65
70256;BME280;57669;52.624;-1.688;2023-01-28T02:08:36;102610.15;;;3.99;50.04
70256;BME280;57669;52.624;-1.688;2023-01-28T02:11:04;102614.62;;;3.84;50.69
70256;BME280;57669;52.624;-1.688;2023-01-28T02:15:53;102612.04;;;4.28;50.43
70256;BME280;57669;52.624;-1.688;2023-01-28T02:20:58;102613.85;;;4.35;50.04
70256;BME280;57669;52.624;-1.688;2023-01-28T02:23:24;102607.86;;;3.92;50.39
70256;BME280;57669;52.624;-1.688;2023-01-28T02:28:08;102608.74;;;4.64;48.36
70256;BME280;57669;52.624;-1.688;2023-01-28T02:30:29;102610.46;;;5.24;47.95
70256;BME280;57669;52.624;-1.688;2023-01-28T02:32:53;102613.44;;;4.66;48.33
70256;BME280;57669;52.624;-1.688;2023-01-28T02:35:21;102614.60;;;4.63;47.93
70256;BME280;57669;52.624;-1.688;2023-01-28T02:37:45;102614.79;;;5.09;47.66
70256;BME280;57669;52.624;-1.688;2023-01-28T02:40:10;102607.34;;;4.74;48.03
70256;BME280;57669;52.624;-1.688;2023-01-28T02:42:34;102595.39;;;5.14;47.35
70256;BME280;57669;52.624;-1.688;2023-01-28T02:44:57;102592.99;;;5.31;47.09
70256;BME280;57669;52.624;-1.688;2023-01-28T02:47:22;102590.13;;;5.66;46.37
70256;BME280;57669;52.624;-1.688;2023-01-28T02:49:49;102586.49;;;5.39;46.67
70256;BME280;57669;52.624;-1.688;2023-01-28T02:52:21;102583.06;;;5.64;46.24
70256;BME280;57669;52.624;-1.688;2023-01-28T02:54:44;102574.32;;;5.61;45.90
70256;BME280;57669;52.624;-1.688;2023-01-28T02:57:11;102572.72;;;5.09;46.13
70256;BME280;57669;52.624;-1.688;2023-01-28T02:59:34;102574.48;;;5.14;46.28
70256;BME280;57669;52.624;-1.688;2023-01-28T03:01:58;102572.17;;;5.85;44.72
70256;BME280;57669;52.624;-1.688;2023-01-28T03:04:24;102575.15;;;6.16;44.97
70256;BME280;57669;52.624;-1.688;2023-01-28T03:06:49;102577.83;;;5.65;45.51
70256;BME280;57669;52.624;-1.688;2023-01-28T03:09:13;102578.94;;;5.79;45.15
70256;BME280;57669;52.624;-1.688;2023-01-28T03:11:40;102582.53;;;5.44;44.98
70256;BME280;57669;52.624;-1.688;2023-01-28T03:14:02;102571.77;;;5.69;44.92
70256;BME280;57669;52.624;-1.688;2023-01-28T03:16:28;102563.38;;;5.48;44.79
70256;BME280;57669;52.624;-1.688;2023-01-28T03:18:52;102565.00;;;6.18;43.95
70256;BME280;57669;52.624;-1.688;2023-01-28T03:21:21;102567.81;;;6.13;44.32
70256;BME280;57669;52.624;-1.688;2023-01-28T03:23:50;102577.80;;;6.21;44.34
70256;BME280;57669;52.624;-1.688;2023-01-28T03:26:10;102570.73;;;6.05;44.20
70256;BME280;57669;52.624;-1.688;2023-01-28T03:28:35;102567.44;;;5.84;44.51
70256;BME280;57669;52.624;-1.688;2023-01-28T03:31:03;102566.50;;;5.86;44.10
70256;BME280;57669;52.624;-1.688;2023-01-28T03:33:25;102565.39;;;5.16;45.24
70256;BME280;57669;52.624;-1.688;2023-01-28T03:35:50;102564.78;;;5.35;45.14
70256;BME280;57669;52.624;-1.688;2023-01-28T03:38:16;102569.24;;;5.68;44.61
70256;BME280;57669;52.624;-1.688;2023-01-28T03:40:49;102566.49;;;5.47;44.51
70256;BME280;57669;52.624;-1.688;2023-01-28T03:43:06;102566.84;;;5.49;44.67
70256;BME280;57669;52.624;-1.688;2023-01-28T03:45:31;102569.37;;;5.85;44.35
70256;BME280;57669;52.624;-1.688;2023-01-28T03:47:56;102576.78;;;5.74;44.32
70256;BME280;57669;52.624;-1.688;2023-01-28T03:50:21;102576.44;;;6.04;43.99
70256;BME280;57669;52.624;-1.688;2023-01-28T03:52:46;102581.65;;;5.48;44.73
70256;BME280;57669;52.624;-1.688;2023-01-28T03:55:12;102580.25;;;4.29;45.93
70256;BME280;57669;52.624;-1.688;2023-01-28T03:57:37;102568.25;;;4.91;45.88
70256;BME280;57669;52.624;-1.688;2023-01-28T04:00:03;102567.89;;;4.72;46.41
70256;BME280;57669;52.624;-1.688;2023-01-28T04:02:28;102565.98;;;5.26;45.33
70256;BME280;57669;52.624;-1.688;2023-01-28T04:04:54;102574.77;;;5.59;45.00
70256;BME280;57669;52.624;-1.688;2023-01-28T04:07:19;102576.18;;;5.17;45.62
70256;BME280;57669;52.624;-1.688;2023-01-28T04:09:44;102571.84;;;5.06;45.73
70256;BME280;57669;52.624;-1.688;2023-01-28T04:12:10;102572.76;;;4.67;45.75
70256;BME280;57669;52.624;-1.688;2023-01-28T04:14:35;102570.78;;;5.10;45.35
70256;BME280;57669;52.624;-1.688;2023-01-28T04:17:00;102579.45;;;5.58;44.14
70256;BME280;57669;52.624;-1.688;2023-01-28T04:19:26;102576.47;;;5.55;44.10
70256;BME280;57669;52.624;-1.688;2023-01-28T04:21:52;102576.73;;;5.53;43.73
70256;BME280;57669;52.624;-1.688;2023-01-28T04:24:16;102579.38;;;4.98;44.89
70256;BME280;57669;52.624;-1.688;2023-01-28T04:26:42;102584.39;;;5.03;44.94
70256;BME280;57669;52.624;-1.688;2023-01-28T04:29:07;102592.76;;;5.28;44.54
70256;BME280;57669;52.624;-1.688;2023-01-28T04:31:32;102592.71;;;5.29;44.73
70256;BME280;57669;52.624;-1.688;2023-01-28T04:33:58;102595.43;;;5.80;43.49
70256;BME280;57669;52.624;-1.688;2023-01-28T04:36:23;102588.64;;;5.55;44.39
70256;BME280;57669;52.624;-1.688;2023-01-28T04:38:48;102597.54;;;5.11;44.31
70256;BME280;57669;52.624;-1.688;2023-01-28T04:41:14;102601.55;;;5.68;43.95
70256;BME280;57669;52.624;-1.688;2023-01-28T04:43:39;102602.43;;;5.73;44.05
70256;BME280;57669;52.624;-1.688;2023-01-28T04:46:05;102585.61;;;5.36;45.27
70256;BME280;57669;52.624;-1.688;2023-01-28T04:48:31;102587.28;;;5.49;45.32
70256;BME280;57669;52.624;-1.688;2023-01-28T04:50:56;102583.85;;;5.01;46.06
70256;BME280;57669;52.624;-1.688;2023-01-28T04:53:22;102586.43;;;5.44;45.21
70256;BME280;57669;52.624;-1.688;2023-01-28T04:55:47;102585.17;;;4.42;47.01
70256;BME280;57669;52.624;-1.688;2023-01-28T04:58:13;102586.82;;;4.93;46.24
70256;BME280;57669;52.624;-1.688;2023-01-28T05:00:38;102592.35;;;6.00;44.63
70256;BME280;57669;52.624;-1.688;2023-01-28T05:03:04;102591.95;;;4.87;45.66
70256;BME280;57669;52.624;-1.688;2023-01-28T05:05:29;102591.94;;;5.26;45.14
70256;BME280;57669;52.624;-1.688;2023-01-28T05:07:56;102586.73;;;4.78;45.44
70256;BME280;57669;52.624;-1.688;2023-01-28T05:10:20;102589.44;;;5.32;44.57
70256;BME280;57669;52.624;-1.688;2023-01-28T05:12:47;102590.59;;;5.26;44.09
70256;BME280;57669;52.624;-1.688;2023-01-28T05:15:10;102594.15;;;5.28;43.89
70256;BME280;57669;52.624;-1.688;2023-01-28T05:17:35;102594.19;;;4.36;45.07
70256;BME280;57669;52.624;-1.688;2023-01-28T05:20:01;102591.27;;;4.22;45.26
70256;BME280;57669;52.624;-1.688;2023-01-28T05:22:26;102586.48;;;4.34;45.62
70256;BME280;57669;52.624;-1.688;2023-01-28T05:24:51;102595.96;;;3.67;46.60
70256;BME280;57669;52.624;-1.688;2023-01-28T05:27:17;102597.03;;;4.80;44.88
70256;BME280;57669;52.624;-1.688;2023-01-28T05:29:42;102597.60;;;4.21;45.75
70256;BME280;57669;52.624;-1.688;2023-01-28T05:32:08;102599.61;;;4.97;44.09
70256;BME280;57669;52.624;-1.688;2023-01-28T05:34:34;102600.43;;;4.86;44.33
70256;BME280;57669;52.624;-1.688;2023-01-28T05:36:59;102598.32;;;4.66;44.45
70256;BME280;57669;52.624;-1.688;2023-01-28T05:39:24;102598.61;;;4.14;45.28
70256;BME280;57669;52.624;-1.688;2023-01-28T05:41:49;102598.49;;;3.63;47.47
70256;BME280;57669;52.624;-1.688;2023-01-28T05:44:14;102598.84;;;3.72;47.03
70256;BME280;57669;52.624;-1.688;2023-01-28T05:46:39;102599.79;;;3.59;46.64
70256;BME280;57669;52.624;-1.688;2023-01-28T05:49:04;102599.77;;;4.20;46.38
70256;BME280;57669;52.624;-1.688;2023-01-28T05:51:29;102596.20;;;4.20;46.31
70256;BME280;57669;52.624;-1.688;2023-01-28T05:53:55;102603.73;;;4.25;45.69
70256;BME280;57669;52.624;-1.688;2023-01-28T05:56:31;102602.23;;;4.15;46.01
70256;BME280;57669;52.624;-1.688;2023-01-28T05:58:45;102591.60;;;4.64;45.89
70256;BME280;57669;52.624;-1.688;2023-01-28T06:01:11;102597.53;;;4.32;45.70
70256;BME280;57669;52.624;-1.688;2023-01-28T06:03:37;102609.51;;;3.93;46.19
70256;BME280;57669;52.624;-1.688;2023-01-28T06:06:03;102611.10;;;4.30;45.57
70256;BME280;57669;52.624;-1.688;2023-01-28T06:08:28;102611.99;;;4.99;44.91
70256;BME280;57669;52.624;-1.688;2023-01-28T06:10:54;102605.98;;;4.86;44.70
70256;BME280;57669;52.624;-1.688;2023-01-28T06:13:19;102606.13;;;4.80;45.21
70256;BME280;57669;52.624;-1.688;2023-01-28T06:15:48;102602.63;;;4.42;45.64
70256;BME280;57669;52.624;-1.688;2023-01-28T06:18:10;102607.03;;;4.00;46.43
70256;BME280;57669;52.624;-1.688;2023-01-28T06:20:36;102604.06;;;4.47;46.52
70256;BME280;57669;52.624;-1.688;2023-01-28T06:23:01;102608.07;;;4.03;46.09
70256;BME280;57669;52.624;-1.688;2023-01-28T06:25:26;102606.30;;;3.99;46.96
70256;BME280;57669;52.624;-1.688;2023-01-28T06:27:51;102605.74;;;4.45;45.93
70256;BME280;57669;52.624;-1.688;2023-01-28T06:30:17;102601.00;;;3.61;46.86
70256;BME280;57669;52.624;-1.688;2023-01-28T06:32:43;102592.42;;;4.30;46.23
70256;BME280;57669;52.624;-1.688;2023-01-28T06:35:08;102587.60;;;4.35;45.87
70256;BME280;57669;52.624;-1.688;2023-01-28T06:37:34;102585.54;;;4.55;45.18
70256;BME280;57669;52.624;-1.688;2023-01-28T06:39:59;102586.00;;;3.70;47.29
70256;BME280;57669;52.624;-1.688;2023-01-28T06:42:24;102589.46;;;3.98;46.91
70256;BME280;57669;52.624;-1.688;2023-01-28T06:44:50;102588.93;;;4.30;46.05
70256;BME280;57669;52.624;-1.688;2023-01-28T06:47:15;102588.40;;;4.64;45.40
70256;BME280;57669;52.624;-1.688;2023-01-28T06:49:41;102585.15;;;4.44;46.33
70256;BME280;57669;52.624;-1.688;2023-01-28T06:52:11;102582.89;;;4.81;45.16
70256;BME280;57669;52.624;-1.688;2023-01-28T06:54:31;102596.02;;;5.27;44.17
70256;BME280;57669;52.624;-1.688;2023-01-28T06:56:57;102601.43;;;5.41;44.13
70256;BME280;57669;52.624;-1.688;2023-01-28T06:59:22;102597.77;;;5.15;44.12
70256;BME280;57669;52.624;-1.688;2023-01-28T07:01:48;102596.03;;;3.74;46.78
70256;BME280;57669;52.624;-1.688;2023-01-28T07:04:14;102607.85;;;4.37;46.43
70256;BME280;57669;52.624;-1.688;2023-01-28T07:06:39;102604.34;;;4.36;46.76
70256;BME280;57669;52.624;-1.688;2023-01-28T07:09:05;102592.78;;;4.37;45.85
70256;BME280;57669;52.624;-1.688;2023-01-28T07:11:29;102593.48;;;4.98;45.03
70256;BME280;57669;52.624;-1.688;2023-01-28T07:13:55;102594.70;;;4.77;45.00
70256;BME280;57669;52.624;-1.688;2023-01-28T07:16:21;102590.43;;;4.38;45.90
70256;BME280;57669;52.624;-1.688;2023-01-28T07:18:46;102592.14;;;4.47;46.01
70256;BME280;57669;52.624;-1.688;2023-01-28T07:21:11;102587.78;;;5.45;44.43
70256;BME280;57669;52.624;-1.688;2023-01-28T07:23:38;102589.06;;;5.13;44.87
70256;BME280;57669;52.624;-1.688;2023-01-28T07:26:03;102594.68;;;4.67;44.86
70256;BME280;57669;52.624;-1.688;2023-01-28T07:28:28;102605.53;;;5.60;44.23
70256;BME280;57669;52.624;-1.688;2023-01-28T07:30:53;102601.54;;;4.85;45.42
70256;BME280;57669;52.624;-1.688;2023-01-28T07:33:19;102611.68;;;5.47;44.56
70256;BME280;57669;52.624;-1.688;2023-01-28T07:35:45;102609.31;;;4.96;45.22
70256;BME280;57669;52.624;-1.688;2023-01-28T07:38:09;102611.17;;;4.67;45.91
70256;BME280;57669;52.624;-1.688;2023-01-28T07:40:35;102612.29;;;4.76;46.23
70256;BME280;57669;52.624;-1.688;2023-01-28T07:43:01;102615.16;;;4.64;46.44
70256;BME280;57669;52.624;-1.688;2023-01-28T07:45:26;102614.34;;;4.08;47.52
70256;BME280;57669;52.624;-1.688;2023-01-28T07:47:55;102608.48;;;4.77;46.51
70256;BME280;57669;52.624;-1.688;2023-01-28T07:50:17;102603.65;;;4.30;47.29
70256;BME280;57669;52.624;-1.688;2023-01-28T07:52:43;102598.13;;;4.62;46.60
70256;BME280;57669;52.624;-1.688;2023-01-28T07:55:10;102610.67;;;4.07;47.77
70256;BME280;57669;52.624;-1.688;2023-01-28T07:57:34;102618.64;;;4.54;47.03
70256;BME280;57669;52.624;-1.688;2023-01-28T07:59:59;102627.76;;;4.48;48.09
70256;BME280;57669;52.624;-1.688;2023-01-28T08:02:25;102634.34;;;3.96;48.38
70256;BME280;57669;52.624;-1.688;2023-01-28T08:04:50;102643.76;;;4.84;47.74
70256;BME280;57669;52.624;-1.688;2023-01-28T08:07:16;102654.85;;;4.29;48.16
70256;BME280;57669;52.624;-1.688;2023-01-28T08:09:42;102656.67;;;4.57;47.70
70256;BME280;57669;52.624;-1.688;2023-01-28T08:12:07;102640.89;;;4.47;48.25
70256;BME280;57669;52.624;-1.688;2023-01-28T08:14:33;102636.64;;;3.88;49.61
70256;BME280;57669;52.624;-1.688;2023-01-28T08:16:58;102635.05;;;3.16;52.08
70256;BME280;57669;52.624;-1.688;2023-01-28T08:19:24;102647.26;;;3.80;51.35
70256;BME280;57669;52.624;-1.688;2023-01-28T08:21:50;102652.36;;;3.88;52.22
70256;BME280;57669;52.624;-1.688;2023-01-28T08:24:18;102659.27;;;2.12;55.99
70256;BME280;57669;52.624;-1.688;2023-01-28T08:26:47;102655.96;;;2.87;55.08
70256;BME280;57669;52.624;-1.688;2023-01-28T08:29:06;102658.21;;;2.94;54.83
70256;BME280;57669;52.624;-1.688;2023-01-28T08:31:31;102656.30;;;2.89;54.56
70256;BME280;57669;52.624;-1.688;2023-01-28T08:33:56;102653.95;;;2.78;55.52
70256;BME280;57669;52.624;-1.688;2023-01-28T08:36:22;102641.15;;;3.39;53.78
70256;BME280;57669;52.624;-1.688;2023-01-28T08:38:50;102629.84;;;3.50;53.60
70256;BME280;57669;52.624;-1.688;2023-01-28T08:41:13;102628.06;;;3.97;52.78
70256;BME280;57669;52.624;-1.688;2023-01-28T08:43:38;102633.66;;;2.98;54.70
70256;BME280;57669;52.624;-1.688;2023-01-28T08:46:04;102622.40;;;3.17;55.07
70256;BME280;57669;52.624;-1.688;2023-01-28T08:48:29;102628.73;;;2.48;56.17
70256;BME280;57669;52.624;-1.688;2023-01-28T08:50:57;102635.73;;;2.56;56.50
70256;BME280;57669;52.624;-1.688;2023-01-28T08:53:20;102631.43;;;3.41;53.90
70256;BME280;57669;52.624;-1.688;2023-01-28T08:55:46;102634.66;;;3.45;54.41
70256;BME280;57669;52.624;-1.688;2023-01-28T08:58:13;102635.99;;;3.14;55.64
70256;BME280;57669;52.624;-1.688;2023-01-28T09:00:37;102610.82;;;3.55;53.76
70256;BME280;57669;52.624;-1.688;2023-01-28T09:03:02;102602.69;;;4.39;52.14
70256;BME280;57669;52.624;-1.688;2023-01-28T09:05:27;102604.72;;;4.27;52.32
70256;BME280;57669;52.624;-1.688;2023-01-28T09:07:53;102609.67;;;3.82;52.25
70256;BME280;57669;52.624;-1.688;2023-01-28T09:10:18;102609.74;;;3.59;53.21
70256;BME280;57669;52.624;-1.688;2023-01-28T09:12:44;102607.28;;;3.45;54.54
70256;BME280;57669;52.624;-1.688;2023-01-28T09:15:10;102611.05;;;4.23;52.63
70256;BME280;57669;52.624;-1.688;2023-01-28T09:17:35;102617.07;;;3.33;54.16
70256;BME280;57669;52.624;-1.688;2023-01-28T09:20:01;102616.68;;;3.45;54.60
70256;BME280;57669;52.624;-1.688;2023-01-28T09:22:26;102615.96;;;3.62;54.32
70256;BME280;57669;52.624;-1.688;2023-01-28T09:24:51;102615.07;;;3.95;53.60
70256;BME280;57669;52.624;-1.688;2023-01-28T09:27:17;102604.69;;;2.78;56.14
70256;BME280;57669;52.624;-1.688;2023-01-28T09:29:42;102591.38;;;3.58;54.44
70256;BME280;57669;52.624;-1.688;2023-01-28T09:32:08;102599.66;;;3.57;54.87
70256;BME280;57669;52.624;-1.688;2023-01-28T09:34:34;102606.10;;;3.32;55.23
70256;BME280;57669;52.624;-1.688;2023-01-28T09:37:00;102606.34;;;3.61;54.86
70256;BME280;57669;52.624;-1.688;2023-01-28T09:39:25;102603.43;;;4.80;51.72
70256;BME280;57669;52.624;-1.688;2023-01-28T09:41:59;102602.04;;;4.73;52.67
70256;BME280;57669;52.624;-1.688;2023-01-28T09:44:29;102598.95;;;4.49;53.03
70256;BME280;57669;52.624;-1.688;2023-01-28T09:46:42;102603.81;;;4.47;52.96
70256;BME280;57669;52.624;-1.688;2023-01-28T09:49:16;102600.36;;;4.30;53.81
70256;BME280;57669;52.624;-1.688;2023-01-28T09:51:38;102603.86;;;3.75;55.03
70256;BME280;57669;52.624;-1.688;2023-01-28T09:54:02;102610.39;;;3.52;55.35
70256;BME280;57669;52.624;-1.688;2023-01-28T09:56:26;102615.85;;;4.16;54.30
70256;BME280;57669;52.624;-1.688;2023-01-28T09:58:50;102620.44;;;4.41;52.90
70256;BME280;57669;52.624;-1.688;2023-01-28T10:01:30;102613.87;;;3.65;54.47
70256;BME280;57669;52.624;-1.688;2023-01-28T10:03:50;102609.48;;;3.53;55.64
70256;BME280;57669;52.624;-1.688;2023-01-28T10:06:17;102614.26;;;4.00;55.23
70256;BME280;57669;52.624;-1.688;2023-01-28T10:08:44;102622.38;;;4.01;54.04
70256;BME280;57669;52.624;-1.688;2023-01-28T10:11:02;102623.51;;;4.09;54.05
70256;BME280;57669;52.624;-1.688;2023-01-28T10:13:38;102623.32;;;4.98;52.09
70256;BME280;57669;52.624;-1.688;2023-01-28T10:15:53;102624.53;;;4.14;54.27
70256;BME280;57669;52.624;-1.688;2023-01-28T10:18:14;102629.74;;;4.43;53.36
70256;BME280;57669;52.624;-1.688;2023-01-28T10:20:43;102628.97;;;4.99;53.31
70256;BME280;57669;52.624;-1.688;2023-01-28T10:23:10;102629.21;;;4.85;53.09
70256;BME280;57669;52.624;-1.688;2023-01-28T10:25:32;102628.11;;;4.97;52.20
70256;BME280;57669;52.624;-1.688;2023-01-28T10:27:57;102632.06;;;4.59;53.20
70256;BME280;57669;52.624;-1.688;2023-01-28T10:30:24;102632.53;;;4.20;55.05
70256;BME280;57669;52.624;-1.688;2023-01-28T10:32:51;102631.88;;;3.98;54.90
70256;BME280;57669;52.624;-1.688;2023-01-28T10:35:13;102626.02;;;4.25;55.13
70256;BME280;57669;52.624;-1.688;2023-01-28T10:37:39;102618.22;;;3.58;57.41
70256;BME280;57669;52.624;-1.688;2023-01-28T10:40:11;102625.99;;;4.50;55.30
70256;BME280;57669;52.624;-1.688;2023-01-28T10:42:31;102627.46;;;3.44;58.40
70256;BME280;57669;52.624;-1.688;2023-01-28T10:44:58;102631.65;;;4.48;55.11
70256;BME280;57669;52.624;-1.688;2023-01-28T10:47:28;102632.57;;;3.95;55.23
70256;BME280;57669;52.624;-1.688;2023-01-28T10:49:50;102630.82;;;4.46;55.20
70256;BME280;57669;52.624;-1.688;2023-01-28T10:52:14;102624.53;;;4.63;55.35
70256;BME280;57669;52.624;-1.688;2023-01-28T10:54:37;102623.36;;;4.52;56.30
70256;BME280;57669;52.624;-1.688;2023-01-28T10:57:07;102619.35;;;4.98;54.37
70256;BME280;57669;52.624;-1.688;2023-01-28T10:59:30;102621.16;;;4.70;54.48
70256;BME280;57669;52.624;-1.688;2023-01-28T11:01:58;102619.52;;;5.42;53.48
70256;BME280;57669;52.624;-1.688;2023-01-28T11:04:23;102619.60;;;5.45;53.29
70256;BME280;57669;52.624;-1.688;2023-01-28T11:06:51;102609.26;;;4.81;54.95
70256;BME280;57669;52.624;-1.688;2023-01-28T11:09:20;102611.93;;;4.38;55.95
70256;BME280;57669;52.624;-1.688;2023-01-28T11:11:36;102611.89;;;4.70;56.50
70256;BME280;57669;52.624;-1.688;2023-01-28T11:14:02;102616.68;;;3.96;56.77
70256;BME280;57669;52.624;-1.688;2023-01-28T11:16:27;102613.55;;;3.88;57.80
70256;BME280;57669;52.624;-1.688;2023-01-28T11:18:56;102618.99;;;3.77;58.52
70256;BME280;57669;52.624;-1.688;2023-01-28T11:21:20;102628.21;;;4.24;57.80
70256;BME280;57669;52.624;-1.688;2023-01-28T11:23:49;102624.37;;;4.17;57.53
70256;BME280;57669;52.624;-1.688;2023-01-28T11:26:16;102626.55;;;3.62;59.02
70256;BME280;57669;52.624;-1.688;2023-01-28T11:28:40;102628.57;;;3.74;58.28
70256;BME280;57669;52.624;-1.688;2023-01-28T11:31:02;102629.84;;;4.95;56.48
70256;BME280;57669;52.624;-1.688;2023-01-28T11:33:31;102636.47;;;5.13;55.46
70256;BME280;57669;52.624;-1.688;2023-01-28T11:35:54;102641.29;;;4.52;57.15
70256;BME280;57669;52.624;-1.688;2023-01-28T11:38:20;102636.09;;;3.75;59.43
70256;BME280;57669;52.624;-1.688;2023-01-28T11:40:48;102632.76;;;4.07;58.92
70256;BME280;57669;52.624;-1.688;2023-01-28T11:43:09;102644.17;;;4.10;58.79
70256;BME280;57669;52.624;-1.688;2023-01-28T11:45:40;102643.75;;;4.26;57.17
70256;BME280;57669;52.624;-1.688;2023-01-28T11:48:18;102644.78;;;4.54;57.22
70256;BME280;57669;52.624;-1.688;2023-01-28T11:50:33;102635.99;;;4.97;55.86
70256;BME280;57669;52.624;-1.688;2023-01-28T11:52:59;102623.09;;;5.27;56.05
70256;BME280;57669;52.624;-1.688;2023-01-28T11:55:24;102626.90;;;5.34;55.44
70256;BME280;57669;52.624;-1.688;2023-01-28T11:57:49;102631.17;;;4.80;56.77
70256;BME280;57669;52.624;-1.688;2023-01-28T12:00:21;102625.84;;;4.78;57.36
70256;BME280;57669;52.624;-1.688;2023-01-28T12:02:44;102622.45;;;4.62;57.58
70256;BME280;57669;52.624;-1.688;2023-01-28T12:05:10;102619.71;;;4.22;57.99
70256;BME280;57669;52.624;-1.688;2023-01-28T12:07:34;102610.34;;;5.05;56.98
70256;BME280;57669;52.624;-1.688;2023-01-28T12:09:55;102602.93;;;5.08;56.18
70256;BME280;57669;52.624;-1.688;2023-01-28T12:12:26;102602.94;;;5.54;55.03
70256;BME280;57669;52.624;-1.688;2023-01-28T12:17:17;102593.64;;;4.66;56.79
70256;BME280;57669;52.624;-1.688;2023-01-28T12:19:42;102591.90;;;4.83;56.79
70256;BME280;57669;52.624;-1.688;2023-01-28T12:22:08;102591.53;;;5.70;54.94
70256;BME280;57669;52.624;-1.688;2023-01-28T12:24:36;102593.46;;;6.02;54.18
70256;BME280;57669;52.624;-1.688;2023-01-28T12:26:52;102587.16;;;6.17;53.48
70256;BME280;57669;52.624;-1.688;2023-01-28T12:29:24;102585.94;;;6.07;53.26
70256;BME280;57669;52.624;-1.688;2023-01-28T12:31:53;102580.15;;;6.17;53.25
70256;BME280;57669;52.624;-1.688;2023-01-28T12:34:19;102584.01;;;6.10;53.26
70256;BME280;57669;52.624;-1.688;2023-01-28T12:36:40;102578.74;;;6.24;52.76
70256;BME280;57669;52.624;-1.688;2023-01-28T12:39:04;102578.56;;;6.85;52.17
70256;BME280;57669;52.624;-1.688;2023-01-28T12:41:26;102575.23;;;6.48;52.14
70256;BME280;57669;52.624;-1.688;2023-01-28T12:43:54;102568.97;;;5.96;54.14
70256;BME280;57669;52.624;-1.688;2023-01-28T12:46:25;102561.52;;;6.13;53.16
70256;BME280;57669;52.624;-1.688;2023-01-28T12:48:42;102556.05;;;6.02;53.13
70256;BME280;57669;52.624;-1.688;2023-01-28T12:51:10;102552.83;;;5.95;52.93
70256;BME280;57669;52.624;-1.688;2023-01-28T12:53:36;102548.98;;;5.95;52.95